createdAt,value
2019-02-23T00:01:59.141Z,-7.39
2019-02-23T00:04:29.202Z,-7.43
2019-02-23T00:06:59.195Z,-7.46
2019-02-23T00:09:29.280Z,-7.51
2019-02-23T00:11:59.560Z,-7.56
2019-02-23T00:14:29.626Z,-7.60
2019-02-23T00:16:59.932Z,-7.60
2019-02-23T00:19:30.043Z,-7.59
2019-02-23T00:22:00.432Z,-7.65
2019-02-23T00:24:30.518Z,-7.66
2019-02-23T00:27:00.811Z,-7.71
2019-02-23T00:29:30.882Z,-7.68
2019-02-23T00:32:01.152Z,-7.68
2019-02-23T00:34:31.519Z,-7.72
2019-02-23T00:37:01.619Z,-7.74
2019-02-23T00:39:31.628Z,-7.80
2019-02-23T00:42:01.631Z,-7.83
2019-02-23T00:44:31.936Z,-7.84
2019-02-23T00:47:02.386Z,-7.86
2019-02-23T00:49:36.172Z,-7.87
2019-02-23T00:52:04.460Z,-7.92
2019-02-23T00:54:34.827Z,-7.87
2019-02-23T00:57:04.916Z,-7.89
2019-02-23T00:59:35.246Z,-7.91
2019-02-23T01:02:05.409Z,-7.88
2019-02-23T01:04:35.416Z,-7.85
2019-02-23T01:07:05.714Z,-7.85
2019-02-23T01:09:35.807Z,-7.81
2019-02-23T01:12:05.835Z,-7.82
2019-02-23T01:14:36.097Z,-7.86
2019-02-23T01:17:06.478Z,-7.88
2019-02-23T01:19:47.011Z,-7.87
2019-02-23T01:22:08.917Z,-7.91
2019-02-23T01:24:38.996Z,-7.92
2019-02-23T01:27:09.484Z,-7.90
2019-02-23T01:29:39.562Z,-7.88
2019-02-23T01:32:09.840Z,-7.87
2019-02-23T01:34:40.050Z,-7.89
2019-02-23T01:37:10.053Z,-7.87
2019-02-23T01:39:40.345Z,-7.88
2019-02-23T01:42:10.421Z,-7.94
2019-02-23T01:44:40.694Z,-7.94
2019-02-23T01:47:13.504Z,-7.92
2019-02-23T01:49:43.603Z,-7.92
2019-02-23T01:52:13.606Z,-7.92
2019-02-23T01:54:43.645Z,-7.98
2019-02-23T01:57:13.683Z,-8.01
2019-02-23T01:59:43.869Z,-7.97
2019-02-23T02:02:14.239Z,-7.90
2019-02-23T02:04:44.248Z,-7.73
2019-02-23T02:07:14.271Z,-7.71
2019-02-23T02:09:44.595Z,-7.66
2019-02-23T02:12:16.303Z,-7.54
2019-02-23T02:14:46.560Z,-7.50
2019-02-23T02:17:16.962Z,-7.47
2019-02-23T02:19:47.483Z,-7.45
2019-02-23T02:22:17.591Z,-7.41
2019-02-23T02:24:47.628Z,-7.32
2019-02-23T02:27:17.914Z,-7.22
2019-02-23T02:29:47.983Z,-7.03
2019-02-23T02:32:18.047Z,-7.00
2019-02-23T02:34:48.305Z,-7.00
2019-02-23T02:37:18.418Z,-6.92
2019-02-23T02:39:48.422Z,-6.85
2019-02-23T02:42:18.444Z,-6.75
2019-02-23T02:44:48.714Z,-6.64
2019-02-23T02:47:18.805Z,-6.58
2019-02-23T02:49:49.097Z,-6.51
2019-02-23T02:52:19.211Z,-6.48
2019-02-23T02:54:50.415Z,-6.46
2019-02-23T02:57:20.417Z,-6.39
2019-02-23T02:59:50.492Z,-6.27
2019-02-23T03:02:20.463Z,-6.29
2019-02-23T03:04:50.502Z,-6.34
2019-02-23T03:07:20.534Z,-6.40
2019-02-23T03:09:50.829Z,-6.37
2019-02-23T03:12:22.003Z,-6.37
2019-02-23T03:14:52.045Z,-6.32
2019-02-23T03:17:22.492Z,-6.32
2019-02-23T03:19:52.613Z,-6.25
2019-02-23T03:22:22.879Z,-6.17
2019-02-23T03:24:53.260Z,-6.13
2019-02-23T03:27:23.612Z,-6.06
2019-02-23T03:29:53.988Z,-5.96
2019-02-23T03:32:24.355Z,-5.98
2019-02-23T03:34:54.460Z,-5.94
2019-02-23T03:37:24.712Z,-5.94
2019-02-23T03:39:54.810Z,-5.90
2019-02-23T03:42:25.076Z,-5.97
2019-02-23T03:44:55.554Z,-6.00
2019-02-23T03:47:25.654Z,-6.08
2019-02-23T03:49:55.658Z,-6.21
2019-02-23T03:52:25.928Z,-6.23
2019-02-23T03:54:56.009Z,-6.43
2019-02-23T03:57:26.130Z,-6.51
2019-02-23T03:59:56.122Z,-6.73
2019-02-23T04:02:26.387Z,-6.79
2019-02-23T04:04:56.479Z,-6.88
2019-02-23T04:07:26.750Z,-7.00
2019-02-23T04:09:56.838Z,-7.11
2019-02-23T04:12:27.099Z,-7.24
2019-02-23T04:14:57.211Z,-7.39
2019-02-23T04:17:27.501Z,-7.37
2019-02-23T04:19:57.844Z,-7.43
2019-02-23T04:22:27.992Z,-7.49
2019-02-23T04:24:57.996Z,-7.54
2019-02-23T04:27:28.298Z,-7.58
2019-02-23T04:29:58.373Z,-7.61
2019-02-23T04:32:28.648Z,-7.68
2019-02-23T04:34:59.090Z,-7.73
2019-02-23T04:37:29.095Z,-7.82
2019-02-23T04:39:59.123Z,-7.91
2019-02-23T04:42:30.296Z,-7.99
2019-02-23T04:45:00.428Z,-8.03
2019-02-23T04:47:30.793Z,-8.06
2019-02-23T04:50:01.125Z,-8.12
2019-02-23T04:52:31.496Z,-8.17
2019-02-23T04:55:01.630Z,-8.23
2019-02-23T04:57:31.653Z,-8.31
2019-02-23T05:00:01.764Z,-8.34
2019-02-23T05:02:32.455Z,-8.33
2019-02-23T05:05:02.859Z,-8.37
2019-02-23T05:07:32.957Z,-8.44
2019-02-23T05:10:03.797Z,-8.42
2019-02-23T05:12:34.188Z,-8.47
2019-02-23T05:15:08.953Z,-8.59
2019-02-23T05:17:39.359Z,-8.51
2019-02-23T05:20:09.689Z,-8.52
2019-02-23T05:22:40.960Z,-8.51
2019-02-23T05:25:10.973Z,-8.41
2019-02-23T05:27:40.991Z,-8.28
2019-02-23T05:30:12.513Z,-8.16
2019-02-23T05:32:42.743Z,-8.03
2019-02-23T05:35:14.283Z,-7.88
2019-02-23T05:37:44.558Z,-7.78
2019-02-23T05:40:14.930Z,-7.66
2019-02-23T05:42:45.784Z,-7.57
2019-02-23T05:45:16.170Z,-7.54
2019-02-23T05:47:46.247Z,-7.58
2019-02-23T05:50:16.563Z,-7.60
2019-02-23T05:52:46.766Z,-7.56
2019-02-23T05:55:17.062Z,-7.47
2019-02-23T05:57:47.144Z,-7.29
2019-02-23T06:00:17.226Z,-6.99
2019-02-23T06:02:48.423Z,-6.74
2019-02-23T06:05:18.455Z,-6.46
2019-02-23T06:07:49.547Z,-6.26
2019-02-23T06:10:19.555Z,-6.11
2019-02-23T06:12:49.778Z,-5.93
2019-02-23T06:15:20.762Z,-5.74
2019-02-23T06:17:52.408Z,-5.54
2019-02-23T06:20:23.104Z,-5.33
2019-02-23T06:22:53.223Z,-5.10
2019-02-23T06:25:23.201Z,-4.92
2019-02-23T06:27:53.490Z,-3.93
2019-02-23T06:30:23.823Z,-2.82
2019-02-23T06:32:54.186Z,-2.55
2019-02-23T06:35:24.517Z,-2.28
2019-02-23T06:37:54.920Z,-1.98
2019-02-23T06:40:25.258Z,-1.27
2019-02-23T06:42:57.808Z,-0.15
2019-02-23T06:45:28.708Z,0.63
2019-02-23T06:47:58.729Z,0.75
2019-02-23T06:50:28.760Z,1.38
2019-02-23T06:52:58.808Z,1.89
2019-02-23T06:55:28.803Z,1.60
2019-02-23T06:58:00.080Z,1.15
2019-02-23T07:00:30.332Z,0.60
2019-02-23T07:03:00.460Z,0.22
2019-02-23T07:05:30.724Z,-0.13
2019-02-23T07:08:01.077Z,-0.44
2019-02-23T07:10:31.412Z,-0.60
2019-02-23T07:13:03.666Z,-0.88
2019-02-23T07:15:33.759Z,-1.01
2019-02-23T07:18:04.966Z,-1.31
2019-02-23T07:20:43.883Z,-1.27
2019-02-23T07:23:06.975Z,-1.36
2019-02-23T07:25:37.043Z,-1.40
2019-02-23T07:28:07.051Z,-1.49
2019-02-23T07:30:37.356Z,-1.45
2019-02-23T07:33:07.726Z,-1.38
2019-02-23T07:35:38.113Z,-1.39
2019-02-23T07:38:08.653Z,-1.34
2019-02-23T07:40:38.722Z,-1.35
2019-02-23T07:43:09.018Z,-1.27
2019-02-23T07:45:39.099Z,-1.30
2019-02-23T07:48:09.480Z,-1.24
2019-02-23T07:50:39.827Z,-1.14
2019-02-23T07:53:10.190Z,-0.93
2019-02-23T07:55:40.525Z,-0.66
2019-02-23T07:58:10.859Z,-0.43
2019-02-23T08:00:41.277Z,-0.17
2019-02-23T08:03:11.632Z,0.25
2019-02-23T08:05:43.591Z,0.84
2019-02-23T08:08:13.715Z,1.54
2019-02-23T08:10:43.730Z,2.80
2019-02-23T08:13:13.745Z,4.45
2019-02-23T08:15:43.755Z,6.60
2019-02-23T08:18:13.851Z,8.11
2019-02-23T08:20:43.883Z,9.39
2019-02-23T08:23:13.919Z,10.10
2019-02-23T08:25:43.925Z,10.30
2019-02-23T08:28:14.020Z,10.47
2019-02-23T08:30:44.306Z,10.86
2019-02-23T08:33:14.621Z,10.96
2019-02-23T08:35:44.698Z,10.71
2019-02-23T08:38:14.768Z,11.15
2019-02-23T08:40:46.476Z,11.27
2019-02-23T08:43:16.772Z,10.91
2019-02-23T08:45:47.181Z,10.11
2019-02-23T08:48:17.305Z,9.55
2019-02-23T08:50:48.059Z,8.59
2019-02-23T08:53:18.261Z,7.41
2019-02-23T08:55:48.266Z,6.23
2019-02-23T08:58:18.561Z,5.64
2019-02-23T09:00:48.881Z,5.13
2019-02-23T09:03:19.223Z,4.57
2019-02-23T09:05:49.479Z,3.86
2019-02-23T09:08:23.494Z,3.42
2019-02-23T09:10:53.717Z,3.40
2019-02-23T09:13:24.011Z,3.38
2019-02-23T09:15:54.394Z,3.72
2019-02-23T09:18:24.472Z,4.04
2019-02-23T09:20:54.483Z,4.43
2019-02-23T09:23:24.497Z,4.70
2019-02-23T09:25:54.565Z,4.70
2019-02-23T09:28:26.192Z,4.58
2019-02-23T09:30:56.655Z,4.55
2019-02-23T09:33:27.043Z,5.10
2019-02-23T09:35:57.365Z,6.61
2019-02-23T09:38:27.431Z,8.50
2019-02-23T09:40:57.442Z,10.17
2019-02-23T09:43:27.461Z,10.93
2019-02-23T09:45:57.494Z,10.96
2019-02-23T09:48:27.664Z,10.72
2019-02-23T09:50:57.931Z,10.40
2019-02-23T09:53:28.002Z,9.81
2019-02-23T09:55:58.023Z,9.17
2019-02-23T09:58:28.022Z,8.63
2019-02-23T10:00:58.042Z,8.45
2019-02-23T10:03:28.072Z,9.00
2019-02-23T10:06:01.039Z,10.03
2019-02-23T10:08:31.333Z,10.67
2019-02-23T10:11:01.471Z,11.12
2019-02-23T10:13:31.555Z,11.48
2019-02-23T10:16:01.658Z,12.15
2019-02-23T10:18:32.797Z,12.16
2019-02-23T10:21:02.877Z,12.10
2019-02-23T10:23:32.907Z,11.36
2019-02-23T10:26:02.953Z,10.71
2019-02-23T10:28:35.130Z,10.44
2019-02-23T10:31:05.463Z,10.32
2019-02-23T10:33:41.387Z,10.33
2019-02-23T10:36:07.239Z,10.37
2019-02-23T10:38:37.562Z,9.72
2019-02-23T10:41:10.513Z,8.82
2019-02-23T10:43:51.493Z,8.24
2019-02-23T10:46:38.402Z,7.79
2019-02-23T10:49:13.888Z,7.35
2019-02-23T10:51:47.579Z,6.79
2019-02-23T10:54:22.435Z,6.34
2019-02-23T10:56:56.847Z,6.19
2019-02-23T10:59:32.160Z,6.18
2019-02-23T11:02:02.797Z,6.14
2019-02-23T11:04:32.809Z,6.11
2019-02-23T11:07:02.828Z,6.11
2019-02-23T11:09:46.447Z,6.08
2019-02-23T11:12:17.044Z,6.02
2019-02-23T11:14:47.704Z,5.91
2019-02-23T11:17:17.779Z,5.53
2019-02-23T11:19:47.858Z,5.29
2019-02-23T11:22:18.124Z,5.06
2019-02-23T11:24:48.462Z,4.93
2019-02-23T11:27:18.558Z,4.78
2019-02-23T11:29:48.817Z,4.48
2019-02-23T11:32:18.927Z,4.17
2019-02-23T11:34:50.585Z,4.16
2019-02-23T11:37:20.626Z,4.10
2019-02-23T11:39:53.545Z,4.08
2019-02-23T11:42:23.840Z,4.06
2019-02-23T11:44:54.200Z,3.95
2019-02-23T11:47:25.116Z,3.64
2019-02-23T11:49:57.819Z,3.52
2019-02-23T11:52:30.969Z,3.44
2019-02-23T11:55:00.943Z,3.30
2019-02-23T11:57:31.001Z,3.11
2019-02-23T12:00:12.187Z,2.99
2019-02-23T12:02:52.085Z,2.97
2019-02-23T12:05:14.403Z,3.00
2019-02-23T12:07:44.689Z,2.99
2019-02-23T12:10:16.934Z,3.02
2019-02-23T12:12:47.046Z,3.03
2019-02-23T12:15:17.316Z,3.07
2019-02-23T12:17:47.968Z,3.07
2019-02-23T12:20:18.354Z,3.05
2019-02-23T12:22:48.675Z,2.89
2019-02-23T12:25:18.760Z,2.76
2019-02-23T12:27:48.759Z,2.66
2019-02-23T12:30:18.789Z,2.65
2019-02-23T12:32:50.396Z,2.63
2019-02-23T12:35:20.421Z,2.52
2019-02-23T12:37:50.425Z,2.39
2019-02-23T12:40:21.630Z,2.33
2019-02-23T12:42:52.009Z,2.31
2019-02-23T12:45:22.034Z,2.41
2019-02-23T12:47:53.483Z,2.52
2019-02-23T12:50:23.892Z,2.41
2019-02-23T12:52:54.863Z,2.36
2019-02-23T12:55:26.307Z,2.31
2019-02-23T12:57:57.963Z,2.31
2019-02-23T13:00:30.495Z,2.36
2019-02-23T13:03:01.928Z,2.32
2019-02-23T13:05:31.938Z,2.40
2019-02-23T13:08:02.299Z,2.49
2019-02-23T13:10:32.867Z,2.65
2019-02-23T13:13:08.722Z,2.94
2019-02-23T13:15:44.962Z,3.27
2019-02-23T13:18:29.813Z,3.50
2019-02-23T13:21:16.817Z,3.66
2019-02-23T13:24:12.790Z,3.81
2019-02-23T13:26:58.166Z,3.91
2019-02-23T13:29:47.929Z,3.84
2019-02-23T13:32:21.261Z,3.78
2019-02-23T13:35:11.329Z,3.82
2019-02-23T13:37:58.190Z,3.92
2019-02-23T13:40:46.224Z,4.05
2019-02-23T13:43:45.484Z,3.91
2019-02-23T13:46:25.938Z,3.87
2019-02-23T13:49:23.654Z,3.83
2019-02-23T13:52:15.605Z,3.94
2019-02-23T13:55:29.189Z,3.88
2019-02-23T13:58:19.557Z,3.74
2019-02-23T14:01:22.354Z,3.56
2019-02-23T14:04:18.839Z,3.31
2019-02-23T14:07:18.145Z,3.16
2019-02-23T14:10:04.982Z,3.05
2019-02-23T14:13:34.969Z,3.08
2019-02-23T14:16:17.428Z,3.09
2019-02-23T14:19:01.678Z,3.13
2019-02-23T14:21:53.538Z,3.00
2019-02-23T14:24:50.379Z,2.87
2019-02-23T14:27:34.899Z,2.74
2019-02-23T14:30:36.949Z,2.91
2019-02-23T14:34:02.225Z,2.88
2019-02-23T14:36:41.755Z,2.91
2019-02-23T14:39:43.985Z,2.91
2019-02-23T14:42:46.143Z,2.97
2019-02-23T14:45:52.672Z,2.88
2019-02-23T14:48:59.200Z,2.75
2019-02-23T14:51:58.019Z,2.60
2019-02-23T14:57:02.228Z,2.36
2019-02-23T14:59:52.219Z,2.21
2019-02-23T15:02:46.685Z,2.14
2019-02-23T15:05:29.038Z,2.09
2019-02-23T15:08:23.267Z,2.09
2019-02-23T15:11:14.374Z,2.15
2019-02-23T15:13:59.414Z,2.24
2019-02-23T15:16:44.405Z,2.24
2019-02-23T15:19:32.849Z,2.14
2019-02-23T15:22:45.035Z,2.08
2019-02-23T15:25:34.855Z,2.00
2019-02-23T15:28:35.750Z,1.88
2019-02-23T15:31:44.328Z,1.81
2019-02-23T15:34:26.461Z,1.69
2019-02-23T15:37:17.205Z,1.49
2019-02-23T15:40:23.945Z,1.41
2019-02-23T15:43:13.924Z,1.32
2019-02-23T15:46:08.725Z,1.19
2019-02-23T15:48:50.839Z,1.13
2019-02-23T15:51:20.851Z,1.04
2019-02-23T15:53:50.879Z,0.95
2019-02-23T15:56:22.143Z,0.90
2019-02-23T15:58:52.149Z,0.83
2019-02-23T16:01:22.182Z,0.80
2019-02-23T16:03:52.193Z,0.74
2019-02-23T16:06:22.239Z,0.73
2019-02-23T16:08:52.516Z,0.70
2019-02-23T16:11:22.590Z,0.65
2019-02-23T16:13:52.916Z,0.59
2019-02-23T16:16:23.105Z,0.57
2019-02-23T16:18:53.386Z,0.53
2019-02-23T16:21:23.452Z,0.48
2019-02-23T16:23:53.727Z,0.41
2019-02-23T16:26:23.803Z,0.41
2019-02-23T16:28:55.862Z,0.42
2019-02-23T16:31:25.871Z,0.36
2019-02-23T16:33:55.897Z,0.28
2019-02-23T16:36:26.156Z,0.26
2019-02-23T16:38:56.565Z,0.29
2019-02-23T16:41:26.935Z,0.21
2019-02-23T16:43:57.255Z,0.17
2019-02-23T16:46:27.621Z,0.19
2019-02-23T16:48:57.704Z,0.18
2019-02-23T16:51:27.988Z,0.13
2019-02-23T16:53:58.485Z,0.06
2019-02-23T16:56:28.582Z,0.04
2019-02-23T16:58:58.784Z,0.09
2019-02-23T17:01:28.805Z,0.14
2019-02-23T17:04:04.141Z,0.10
2019-02-23T17:06:34.560Z,0.03
2019-02-23T17:09:04.928Z,0.03
2019-02-23T17:11:36.723Z,-0.06
2019-02-23T17:14:06.750Z,-0.21
2019-02-23T17:16:37.087Z,-0.32
2019-02-23T17:19:07.163Z,-0.39
2019-02-23T17:21:37.279Z,-0.49
2019-02-23T17:24:07.296Z,-0.52
2019-02-23T17:26:37.569Z,-0.54
2019-02-23T17:29:07.995Z,-0.56
2019-02-23T17:31:38.358Z,-0.55
2019-02-23T17:34:08.379Z,-0.59
2019-02-23T17:36:38.429Z,-0.64
2019-02-23T17:39:10.162Z,-0.65
2019-02-23T17:41:40.618Z,-0.76
2019-02-23T17:44:10.899Z,-0.84
2019-02-23T17:46:41.264Z,-0.86
2019-02-23T17:49:11.436Z,-0.82
2019-02-23T17:51:41.516Z,-0.85
2019-02-23T17:54:11.611Z,-0.85
2019-02-23T17:56:41.626Z,-0.90
2019-02-23T17:59:12.110Z,-0.93
2019-02-23T18:01:42.188Z,-0.96
2019-02-23T18:04:12.489Z,-0.88
2019-02-23T18:06:43.409Z,-0.95
2019-02-23T18:09:13.570Z,-0.98
2019-02-23T18:11:43.765Z,-1.05
2019-02-23T18:14:13.796Z,-0.96
2019-02-23T18:16:44.282Z,-1.07
2019-02-23T18:19:14.351Z,-1.14
2019-02-23T18:21:47.792Z,-1.19
2019-02-23T18:24:17.806Z,-1.16
2019-02-23T18:26:47.849Z,-1.14
2019-02-23T18:29:19.667Z,-1.16
2019-02-23T18:31:49.936Z,-1.21
2019-02-23T18:34:23.377Z,-1.23
2019-02-23T18:36:53.813Z,-1.22
2019-02-23T18:39:26.797Z,-1.23
2019-02-23T18:41:57.226Z,-1.20
2019-02-23T18:44:28.817Z,-1.15
2019-02-23T18:46:59.215Z,-1.07
2019-02-23T18:49:31.465Z,-1.01
2019-02-23T18:52:01.954Z,-0.95
2019-02-23T18:54:34.171Z,-0.91
2019-02-23T18:57:04.537Z,-0.90
2019-02-23T18:59:35.023Z,-0.87
2019-02-23T19:02:05.331Z,-0.83
2019-02-23T19:04:37.109Z,-0.83
2019-02-23T19:07:08.834Z,-0.73
2019-02-23T19:09:39.226Z,-0.75
2019-02-23T19:12:09.320Z,-0.75
2019-02-23T19:14:39.450Z,-0.69
2019-02-23T19:17:09.706Z,-0.69
2019-02-23T19:19:41.822Z,-0.63
2019-02-23T19:22:13.906Z,-0.53
2019-02-23T19:24:44.432Z,-0.49
2019-02-23T19:27:14.687Z,-0.51
2019-02-23T19:29:45.155Z,-0.38
2019-02-23T19:32:17.033Z,-0.36
2019-02-23T19:34:47.310Z,-0.35
2019-02-23T19:37:17.436Z,-0.33
2019-02-23T19:39:47.447Z,-0.32
2019-02-23T19:42:19.820Z,-0.29
2019-02-23T19:44:51.176Z,-0.28
2019-02-23T19:47:22.303Z,-0.20
2019-02-23T19:49:54.419Z,-0.19
2019-02-23T19:52:24.770Z,-0.16
2019-02-23T19:54:54.981Z,-0.19
2019-02-23T19:57:25.263Z,-0.17
2019-02-23T19:59:55.443Z,-0.17
2019-02-23T20:02:25.471Z,-0.15
2019-02-23T20:04:55.922Z,-0.12
2019-02-23T20:07:25.981Z,-0.10
2019-02-23T20:10:04.839Z,-0.13
2019-02-23T20:12:35.590Z,-0.17
2019-02-23T20:15:08.046Z,-0.16
2019-02-23T20:17:38.396Z,-0.20
2019-02-23T20:20:08.898Z,-0.17
2019-02-23T20:22:39.340Z,-0.12
2019-02-23T20:25:10.430Z,-0.09
2019-02-23T20:27:41.918Z,-0.08
2019-02-23T20:30:12.775Z,-0.05
2019-02-23T20:32:42.873Z,0.04
2019-02-23T20:35:13.161Z,-0.02
2019-02-23T20:37:43.727Z,0.00
2019-02-23T20:40:13.792Z,0.02
2019-02-23T20:42:43.895Z,-0.06
2019-02-23T20:45:14.010Z,-0.08
2019-02-23T20:47:52.156Z,-0.15
2019-02-23T20:50:22.587Z,-0.15
2019-02-23T20:52:52.897Z,-0.07
2019-02-23T20:55:24.039Z,-0.07
2019-02-23T20:57:54.985Z,-0.06
2019-02-23T21:00:27.119Z,-0.02
2019-02-23T21:02:57.225Z,-0.02
2019-02-23T21:05:27.528Z,-0.01
2019-02-23T21:07:57.902Z,0.00
2019-02-23T21:10:28.095Z,-0.05
2019-02-23T21:12:58.358Z,-0.08
2019-02-23T21:15:29.747Z,-0.09
2019-02-23T21:17:59.825Z,-0.12
2019-02-23T21:20:30.089Z,-0.13
2019-02-23T21:23:00.225Z,-0.11
2019-02-23T21:25:31.332Z,-0.14
2019-02-23T21:28:01.884Z,-0.11
2019-02-23T21:30:32.298Z,-0.11
2019-02-23T21:33:04.308Z,-0.07
2019-02-23T21:35:34.686Z,-0.08
2019-02-23T21:38:06.022Z,-0.08
2019-02-23T21:40:36.154Z,-0.09
2019-02-23T21:43:06.162Z,-0.09
2019-02-23T21:45:36.463Z,-0.03
2019-02-23T21:48:07.484Z,0.03
2019-02-23T21:50:37.491Z,0.05
2019-02-23T21:53:08.063Z,0.13
2019-02-23T21:55:38.129Z,0.12
2019-02-23T21:58:08.415Z,0.15
2019-02-23T22:00:38.740Z,0.17
2019-02-23T22:03:09.359Z,0.17
2019-02-23T22:05:39.697Z,0.15
2019-02-23T22:08:10.037Z,0.18
2019-02-23T22:10:41.735Z,0.14
2019-02-23T22:13:11.754Z,0.18
2019-02-23T22:15:41.754Z,0.23
2019-02-23T22:18:12.091Z,0.20
2019-02-23T22:20:42.202Z,0.21
2019-02-23T22:23:12.206Z,0.21
2019-02-23T22:25:42.209Z,0.23
2019-02-23T22:28:12.269Z,0.23
2019-02-23T22:30:42.268Z,0.20
2019-02-23T22:33:12.549Z,0.18
2019-02-23T22:35:42.867Z,0.16
2019-02-23T22:38:13.267Z,0.15
2019-02-23T22:40:43.326Z,0.11
2019-02-23T22:43:13.333Z,0.12
2019-02-23T22:45:43.382Z,0.14
2019-02-23T22:48:13.660Z,0.10
2019-02-23T22:50:43.988Z,0.07
2019-02-23T22:53:14.471Z,0.12
2019-02-23T22:55:44.543Z,0.09
2019-02-23T22:58:14.559Z,0.12
2019-02-23T23:00:54.737Z,0.17
2019-02-23T23:03:26.371Z,0.20
2019-02-23T23:05:56.919Z,0.23
2019-02-23T23:08:26.996Z,0.31
2019-02-23T23:10:57.261Z,0.30
2019-02-23T23:13:27.670Z,0.32
2019-02-23T23:15:58.024Z,0.30
2019-02-23T23:18:28.216Z,0.31
2019-02-23T23:20:58.222Z,0.40
2019-02-23T23:23:28.254Z,0.46
2019-02-23T23:25:58.290Z,0.48
2019-02-23T23:28:28.548Z,0.45
2019-02-23T23:31:00.174Z,0.49
2019-02-23T23:33:30.499Z,0.43
2019-02-23T23:36:00.693Z,0.39
2019-02-23T23:38:30.724Z,0.38
2019-02-23T23:41:00.727Z,0.35
2019-02-23T23:43:30.988Z,0.29
2019-02-23T23:46:01.063Z,0.39
2019-02-23T23:48:31.619Z,0.37
2019-02-23T23:51:01.722Z,0.32
2019-02-23T23:53:31.753Z,0.28
2019-02-23T23:56:02.049Z,0.35
2019-02-23T23:58:32.112Z,0.29
